createdAt,value
2022-12-27T00:01:33.379Z,79.57
2022-12-27T00:03:59.845Z,78.57
2022-12-27T00:06:27.698Z,77.16
2022-12-27T00:08:55.026Z,78.70
2022-12-27T00:11:23.996Z,79.31
2022-12-27T00:13:50.880Z,79.63
2022-12-27T00:16:20.850Z,78.90
2022-12-27T00:18:47.846Z,80.15
2022-12-27T00:21:15.059Z,78.84
2022-12-27T00:23:43.793Z,78.79
2022-12-27T00:26:12.467Z,78.99
2022-12-27T00:28:39.269Z,79.68
2022-12-27T00:31:06.315Z,78.24
2022-12-27T00:33:35.551Z,79.44
2022-12-27T00:36:03.893Z,78.08
2022-12-27T00:38:30.917Z,78.62
2022-12-27T00:40:57.343Z,78.61
2022-12-27T00:43:23.860Z,78.75
2022-12-27T00:45:50.391Z,77.83
2022-12-27T00:48:16.753Z,77.81
2022-12-27T00:50:45.303Z,77.86
2022-12-27T00:53:12.443Z,76.95
2022-12-27T00:55:38.915Z,78.90
2022-12-27T00:58:05.501Z,76.64
2022-12-27T01:00:31.863Z,77.65
2022-12-27T01:02:58.235Z,75.94
2022-12-27T01:05:24.621Z,78.04
2022-12-27T01:07:52.305Z,78.22
2022-12-27T01:10:18.686Z,78.23
2022-12-27T01:12:45.078Z,78.78
2022-12-27T01:15:12.244Z,78.87
2022-12-27T01:17:38.589Z,77.11
2022-12-27T01:20:06.076Z,78.06
2022-12-27T01:22:32.441Z,79.33
2022-12-27T01:25:00.156Z,79.32
2022-12-27T01:27:26.803Z,79.77
2022-12-27T01:29:53.164Z,79.09
2022-12-27T01:32:19.569Z,79.48
2022-12-27T01:34:46.038Z,79.33
2022-12-27T01:37:12.385Z,76.68
2022-12-27T01:39:38.770Z,77.71
2022-12-27T01:42:15.653Z,76.22
2022-12-27T01:44:52.792Z,77.22
2022-12-27T01:47:25.850Z,78.02
2022-12-27T01:49:59.298Z,77.35
2022-12-27T01:52:34.930Z,78.26
2022-12-27T01:55:08.321Z,79.19
2022-12-27T01:57:36.039Z,76.90
2022-12-27T02:00:02.690Z,76.46
2022-12-27T02:02:29.182Z,76.96
2022-12-27T02:04:55.720Z,78.46
2022-12-27T02:07:27.054Z,77.67
2022-12-27T02:09:57.007Z,77.92
2022-12-27T02:12:25.722Z,77.46
2022-12-27T02:14:53.447Z,78.10
2022-12-27T02:17:23.137Z,78.15
2022-12-27T02:19:58.009Z,77.96
2022-12-27T02:23:07.543Z,78.44
2022-12-27T02:25:52.995Z,78.45
2022-12-27T02:28:36.618Z,79.75
2022-12-27T02:31:08.780Z,78.50
2022-12-27T02:33:41.957Z,78.22
2022-12-27T02:36:11.979Z,78.25
2022-12-27T02:38:42.388Z,78.94
2022-12-27T02:41:11.477Z,79.79
2022-12-27T02:43:37.840Z,78.19
2022-12-27T02:46:13.392Z,78.53
2022-12-27T02:48:51.539Z,78.54
2022-12-27T02:51:36.506Z,78.35
2022-12-27T02:54:16.464Z,78.59
2022-12-27T02:56:57.114Z,79.56
2022-12-27T02:59:36.392Z,80.81
2022-12-27T03:02:12.793Z,79.48
2022-12-27T03:04:53.506Z,79.58
2022-12-27T03:07:30.709Z,79.52
2022-12-27T03:10:12.969Z,81.26
2022-12-27T03:12:49.375Z,81.75
2022-12-27T03:15:33.334Z,80.29
2022-12-27T03:18:08.258Z,79.31
2022-12-27T03:20:38.639Z,80.40
2022-12-27T03:23:05.266Z,80.45
2022-12-27T03:25:35.700Z,80.15
2022-12-27T03:28:06.116Z,80.58
2022-12-27T03:30:32.821Z,81.01
2022-12-27T03:33:04.495Z,78.90
2022-12-27T03:35:35.380Z,79.75
2022-12-27T03:38:03.937Z,80.01
2022-12-27T03:40:41.650Z,80.13
2022-12-27T03:43:13.438Z,80.30
2022-12-27T03:45:54.556Z,81.90
2022-12-27T03:48:26.763Z,79.79
2022-12-27T03:50:56.628Z,80.30
2022-12-27T03:53:28.743Z,80.47
2022-12-27T03:55:55.679Z,79.76
2022-12-27T03:58:22.164Z,80.13
2022-12-27T04:00:48.550Z,81.54
2022-12-27T04:03:14.983Z,80.81
2022-12-27T04:05:42.685Z,79.32
2022-12-27T04:08:09.075Z,79.61
2022-12-27T04:10:35.479Z,80.98
2022-12-27T04:13:01.859Z,81.54
2022-12-27T04:15:28.334Z,82.48
2022-12-27T04:17:54.728Z,81.03
2022-12-27T04:20:21.417Z,80.92
2022-12-27T04:22:49.109Z,81.81
2022-12-27T04:25:15.497Z,82.75
2022-12-27T04:27:42.080Z,83.55
2022-12-27T04:30:09.864Z,83.12
2022-12-27T04:32:36.228Z,82.67
2022-12-27T04:35:02.736Z,82.12
2022-12-27T04:37:29.442Z,81.48
2022-12-27T04:39:57.098Z,82.67
2022-12-27T04:42:23.433Z,82.77
2022-12-27T04:44:49.905Z,83.21
2022-12-27T04:47:21.690Z,83.03
2022-12-27T04:49:48.165Z,81.95
2022-12-27T04:52:16.683Z,81.81
2022-12-27T04:54:44.276Z,82.15
2022-12-27T04:57:11.953Z,81.85
2022-12-27T04:59:38.297Z,81.76
2022-12-27T05:02:04.844Z,82.18
2022-12-27T05:04:32.713Z,81.58
2022-12-27T05:06:59.445Z,83.17
2022-12-27T05:09:25.816Z,81.62
2022-12-27T05:11:52.159Z,80.71
2022-12-27T05:14:19.878Z,81.55
2022-12-27T05:16:46.280Z,82.84
2022-12-27T05:19:14.513Z,81.32
2022-12-27T05:21:43.599Z,83.37
2022-12-27T05:24:10.153Z,82.05
2022-12-27T05:26:37.027Z,81.39
2022-12-27T05:29:03.399Z,81.94
2022-12-27T05:31:31.759Z,81.72
2022-12-27T05:33:58.226Z,81.09
2022-12-27T05:36:25.348Z,83.26
2022-12-27T05:38:51.848Z,82.93
2022-12-27T05:41:18.502Z,82.50
2022-12-27T05:43:45.256Z,82.04
2022-12-27T05:46:13.667Z,81.40
2022-12-27T05:48:41.863Z,82.32
2022-12-27T05:51:11.209Z,82.57
2022-12-27T05:53:37.712Z,81.37
2022-12-27T05:56:04.578Z,81.90
2022-12-27T05:58:31.335Z,82.33
2022-12-27T06:00:58.755Z,82.57
2022-12-27T06:03:25.351Z,82.46
2022-12-27T06:05:59.925Z,82.81
2022-12-27T06:08:26.268Z,82.54
2022-12-27T06:11:01.452Z,83.04
2022-12-27T06:13:27.801Z,81.79
2022-12-27T06:15:54.149Z,79.82
2022-12-27T06:18:20.526Z,81.99
2022-12-27T06:20:46.875Z,80.97
2022-12-27T06:23:14.556Z,82.84
2022-12-27T06:25:40.939Z,82.92
2022-12-27T06:28:07.282Z,81.99
2022-12-27T06:30:36.309Z,80.50
2022-12-27T06:33:02.955Z,80.84
2022-12-27T06:35:29.292Z,78.00
2022-12-27T06:37:55.629Z,78.74
2022-12-27T06:40:23.332Z,81.22
2022-12-27T06:42:49.688Z,79.76
2022-12-27T06:45:16.332Z,80.10
2022-12-27T06:47:42.929Z,81.09
2022-12-27T06:50:10.091Z,80.22
2022-12-27T06:52:36.444Z,80.27
2022-12-27T06:55:03.925Z,80.53
2022-12-27T06:57:31.700Z,80.54
2022-12-27T06:59:58.037Z,80.11
2022-12-27T07:02:24.514Z,81.76
2022-12-27T07:04:50.852Z,82.06
2022-12-27T07:07:17.227Z,83.28
2022-12-27T07:09:43.617Z,82.60
2022-12-27T07:12:09.997Z,82.98
2022-12-27T07:14:37.763Z,83.39
2022-12-27T07:17:04.150Z,82.13
2022-12-27T07:19:30.495Z,83.04
2022-12-27T07:21:56.894Z,81.20
2022-12-27T07:24:23.317Z,81.85
2022-12-27T07:26:49.667Z,82.51
2022-12-27T07:29:16.149Z,82.68
2022-12-27T07:31:43.859Z,82.56
2022-12-27T07:34:10.266Z,82.99
2022-12-27T07:36:38.993Z,83.63
2022-12-27T07:39:07.171Z,83.99
2022-12-27T07:41:33.827Z,84.60
2022-12-27T07:44:00.288Z,84.67
2022-12-27T07:46:26.742Z,84.67
2022-12-27T07:48:55.600Z,85.36
2022-12-27T07:51:22.642Z,84.11
2022-12-27T07:53:49.882Z,85.19
2022-12-27T07:56:25.246Z,85.15
2022-12-27T07:58:54.088Z,85.22
2022-12-27T08:01:21.957Z,83.68
2022-12-27T08:03:48.658Z,83.36
2022-12-27T08:06:23.160Z,82.51
2022-12-27T08:08:51.213Z,83.14
2022-12-27T08:11:17.592Z,83.06
2022-12-27T08:13:44.603Z,83.38
2022-12-27T08:16:16.237Z,83.17
2022-12-27T08:18:42.709Z,82.56
2022-12-27T08:21:09.094Z,83.17
2022-12-27T08:23:36.768Z,85.22
2022-12-27T08:26:03.197Z,83.66
2022-12-27T08:28:29.628Z,84.83
2022-12-27T08:30:56.024Z,83.92
2022-12-27T08:33:22.403Z,84.23
2022-12-27T08:35:53.625Z,83.87
2022-12-27T08:38:20.862Z,84.11
2022-12-27T08:40:48.643Z,84.63
2022-12-27T08:43:15.301Z,84.53
2022-12-27T08:45:41.898Z,84.27
2022-12-27T08:48:08.988Z,84.80
2022-12-27T08:50:35.448Z,85.03
2022-12-27T08:53:03.922Z,85.03
2022-12-27T08:55:31.855Z,83.86
2022-12-27T08:58:00.870Z,83.92
2022-12-27T09:00:28.526Z,83.14
2022-12-27T09:02:54.979Z,82.60
2022-12-27T09:05:22.134Z,82.00
2022-12-27T09:07:49.063Z,82.10
2022-12-27T09:10:16.147Z,84.14
2022-12-27T09:12:44.311Z,82.67
2022-12-27T09:15:12.535Z,83.93
2022-12-27T09:17:39.434Z,82.55
2022-12-27T09:20:07.136Z,84.07
2022-12-27T09:22:33.828Z,81.85
2022-12-27T09:25:00.284Z,82.22
2022-12-27T09:27:26.738Z,83.42
2022-12-27T09:29:53.161Z,83.73
2022-12-27T09:32:20.865Z,82.87
2022-12-27T09:34:47.234Z,81.63
2022-12-27T09:37:13.582Z,83.22
2022-12-27T09:39:39.955Z,82.36
2022-12-27T09:45:14.318Z,83.91
2022-12-27T09:47:48.216Z,81.54
2022-12-27T09:50:19.368Z,81.98
2022-12-27T09:52:55.114Z,78.96
2022-12-27T09:55:28.318Z,79.93
2022-12-27T09:58:04.270Z,80.71
2022-12-27T10:00:35.104Z,80.49
2022-12-27T10:03:05.372Z,81.72
2022-12-27T10:05:34.733Z,82.67
2022-12-27T10:08:16.822Z,83.38
2022-12-27T10:10:50.956Z,81.59
2022-12-27T10:13:33.885Z,81.05
2022-12-27T10:16:15.430Z,82.99
2022-12-27T10:18:54.716Z,83.16
2022-12-27T10:21:23.830Z,80.89
2022-12-27T10:23:55.429Z,78.24
2022-12-27T10:26:21.858Z,82.22
2022-12-27T10:28:57.193Z,82.72
2022-12-27T10:31:25.317Z,82.87
2022-12-27T10:33:53.619Z,82.30
2022-12-27T10:36:23.454Z,81.83
2022-12-27T10:38:49.850Z,84.37
2022-12-27T10:41:26.229Z,83.71
2022-12-27T10:43:54.266Z,85.00
2022-12-27T10:46:27.514Z,82.93
2022-12-27T10:51:47.049Z,83.34
2022-12-27T10:54:16.136Z,83.39
2022-12-27T10:56:43.336Z,85.17
2022-12-27T10:59:18.214Z,84.50
2022-12-27T11:01:46.335Z,86.45
2022-12-27T11:04:21.074Z,86.23
2022-12-27T11:06:49.687Z,86.36
2022-12-27T11:09:25.645Z,84.59
2022-12-27T11:11:52.637Z,83.44
2022-12-27T11:14:20.824Z,81.97
2022-12-27T11:16:48.740Z,82.47
2022-12-27T11:19:24.638Z,82.27
2022-12-27T11:21:53.138Z,82.38
2022-12-27T11:24:21.352Z,81.12
2022-12-27T11:26:54.259Z,81.91
2022-12-27T11:29:24.849Z,79.63
2022-12-27T11:31:52.597Z,80.40
2022-12-27T11:34:26.100Z,78.59
2022-12-27T11:36:55.716Z,77.51
2022-12-27T11:39:42.194Z,82.40
2022-12-27T11:42:19.622Z,82.74
2022-12-27T11:45:03.406Z,78.78
2022-12-27T11:47:35.601Z,79.05
2022-12-27T11:50:23.083Z,79.76
2022-12-27T11:53:01.750Z,79.17
2022-12-27T11:56:05.712Z,80.84
2022-12-27T11:59:04.012Z,79.46
2022-12-27T12:01:55.028Z,80.10
2022-12-27T12:04:49.764Z,79.37
2022-12-27T12:07:36.897Z,77.70
2022-12-27T12:10:21.253Z,78.21
2022-12-27T12:13:23.741Z,78.57
2022-12-27T12:16:16.773Z,78.62
2022-12-27T12:19:19.236Z,76.92
2022-12-27T12:21:52.342Z,76.07
2022-12-27T12:24:34.715Z,76.35
2022-12-27T12:27:17.702Z,75.96
2022-12-27T12:30:04.064Z,76.29
2022-12-27T12:32:47.058Z,74.10
2022-12-27T12:35:31.472Z,74.62
2022-12-27T12:38:09.692Z,74.01
2022-12-27T12:40:55.844Z,75.67
2022-12-27T12:43:40.068Z,74.19
2022-12-27T12:46:20.564Z,74.23
2022-12-27T12:49:09.141Z,77.69
2022-12-27T12:51:56.716Z,76.63
2022-12-27T12:54:43.387Z,74.46
2022-12-27T12:57:24.602Z,76.31
2022-12-27T13:00:05.776Z,75.27
2022-12-27T13:03:03.936Z,75.16
2022-12-27T13:05:38.382Z,75.73
2022-12-27T13:08:14.251Z,74.54
2022-12-27T13:11:03.562Z,76.24
2022-12-27T13:13:41.266Z,74.70
2022-12-27T13:16:19.449Z,75.71
2022-12-27T13:18:54.577Z,76.13
2022-12-27T13:21:36.730Z,74.89
2022-12-27T13:24:09.881Z,74.49
2022-12-27T13:26:44.752Z,73.42
2022-12-27T13:29:34.385Z,73.91
2022-12-27T13:32:09.271Z,73.28
2022-12-27T13:34:47.413Z,72.75
2022-12-27T13:37:24.350Z,74.15
2022-12-27T13:40:23.878Z,74.96
2022-12-27T13:43:09.173Z,75.25
2022-12-27T13:45:47.449Z,75.25
2022-12-27T13:48:38.918Z,76.11
2022-12-27T13:51:22.947Z,73.75
2022-12-27T13:54:07.987Z,73.57
2022-12-27T13:56:53.997Z,74.46
2022-12-27T14:00:05.828Z,75.19
2022-12-27T14:03:11.693Z,73.45
2022-12-27T14:06:04.726Z,74.95
2022-12-27T14:08:56.516Z,75.04
2022-12-27T14:11:36.329Z,74.72
2022-12-27T14:14:05.190Z,75.21
2022-12-27T14:16:41.311Z,74.95
2022-12-27T14:19:24.019Z,75.79
2022-12-27T14:22:06.383Z,74.86
2022-12-27T14:25:18.008Z,75.89
2022-12-27T14:28:15.158Z,76.73
2022-12-27T14:31:20.064Z,75.41
2022-12-27T14:34:22.912Z,75.74
2022-12-27T14:37:19.649Z,78.08
2022-12-27T14:40:22.003Z,76.06
2022-12-27T14:43:30.441Z,75.66
2022-12-27T14:46:17.423Z,73.87
2022-12-27T14:49:20.953Z,74.83
2022-12-27T14:52:18.830Z,74.13
2022-12-27T14:55:15.140Z,74.86
2022-12-27T14:57:51.359Z,75.15
2022-12-27T15:00:20.604Z,74.74
2022-12-27T15:03:19.314Z,76.03
2022-12-27T15:06:02.149Z,75.39
2022-12-27T15:08:45.676Z,78.01
2022-12-27T15:11:36.572Z,77.62
2022-12-27T15:14:23.262Z,76.46
2022-12-27T15:16:58.976Z,76.14
2022-12-27T15:19:41.481Z,77.87
2022-12-27T15:22:17.240Z,76.96
2022-12-27T15:24:52.462Z,78.66
2022-12-27T15:27:27.490Z,77.10
2022-12-27T15:30:09.108Z,76.03
2022-12-27T15:32:52.648Z,75.82
2022-12-27T15:35:38.126Z,74.99
2022-12-27T15:38:10.051Z,76.92
2022-12-27T15:40:48.961Z,78.08
2022-12-27T15:43:26.968Z,76.75
2022-12-27T15:46:08.354Z,75.50
2022-12-27T15:48:53.826Z,77.92
2022-12-27T15:51:31.933Z,78.16
2022-12-27T15:54:22.140Z,76.86
2022-12-27T15:57:09.797Z,77.57
2022-12-27T15:59:42.593Z,77.97
2022-12-27T16:02:37.350Z,76.28
2022-12-27T16:05:32.475Z,77.57
2022-12-27T16:08:30.705Z,79.41
2022-12-27T16:10:58.257Z,77.54
2022-12-27T16:13:42.908Z,77.68
2022-12-27T16:16:32.444Z,77.63
2022-12-27T16:19:40.374Z,79.31
2022-12-27T16:22:23.547Z,79.22
2022-12-27T16:24:50.113Z,79.13
2022-12-27T16:27:28.616Z,77.28
2022-12-27T16:29:57.174Z,77.09
2022-12-27T16:32:26.427Z,80.09
2022-12-27T16:34:54.545Z,79.70
2022-12-27T16:37:26.452Z,80.53
2022-12-27T16:40:07.145Z,80.13
2022-12-27T16:43:22.881Z,79.75
2022-12-27T16:45:57.623Z,79.18
2022-12-27T16:48:35.016Z,78.93
2022-12-27T16:51:13.088Z,79.23
2022-12-27T16:54:01.884Z,79.66
2022-12-27T16:56:30.946Z,81.29
2022-12-27T16:58:57.802Z,79.62
2022-12-27T17:02:00.975Z,81.37
2022-12-27T17:05:00.370Z,81.59
2022-12-27T17:07:41.570Z,80.50
2022-12-27T17:10:44.986Z,82.36
2022-12-27T17:13:16.001Z,82.55
2022-12-27T17:15:51.530Z,82.54
2022-12-27T17:18:27.230Z,81.27
2022-12-27T17:21:00.820Z,81.88
2022-12-27T17:23:27.620Z,82.69
2022-12-27T17:26:06.141Z,82.41
2022-12-27T17:28:41.701Z,84.50
2022-12-27T17:31:17.932Z,81.58
2022-12-27T17:33:56.741Z,84.10
2022-12-27T17:36:36.317Z,83.07
2022-12-27T17:39:18.146Z,81.05
2022-12-27T17:41:55.719Z,81.31
2022-12-27T17:44:35.116Z,82.79
2022-12-27T17:47:15.688Z,83.99
2022-12-27T17:49:43.146Z,82.09
2022-12-27T17:52:16.032Z,82.14
2022-12-27T17:54:42.436Z,83.54
2022-12-27T17:57:11.724Z,82.68
2022-12-27T17:59:42.883Z,82.79
2022-12-27T18:02:17.848Z,82.79
2022-12-27T18:04:50.415Z,80.55
2022-12-27T18:07:24.632Z,82.87
2022-12-27T18:09:55.065Z,84.11
2022-12-27T18:12:23.963Z,84.10
2022-12-27T18:14:55.441Z,83.22
2022-12-27T18:17:28.951Z,83.63
2022-12-27T18:19:56.530Z,84.49
2022-12-27T18:22:24.689Z,82.54
2022-12-27T18:24:51.053Z,81.34
2022-12-27T18:27:20.352Z,81.67
2022-12-27T18:29:47.019Z,79.70
2022-12-27T18:32:17.356Z,82.30
2022-12-27T18:34:47.741Z,81.17
2022-12-27T18:37:18.521Z,80.74
2022-12-27T18:39:51.550Z,80.91
2022-12-27T18:42:23.491Z,79.86
2022-12-27T18:44:56.383Z,82.60
2022-12-27T18:47:25.593Z,79.86
2022-12-27T18:49:55.571Z,80.24
2022-12-27T18:52:24.981Z,80.68
2022-12-27T18:54:53.440Z,79.39
2022-12-27T18:57:33.161Z,80.09
2022-12-27T19:00:01.975Z,80.82
2022-12-27T19:02:35.882Z,80.41
2022-12-27T19:05:26.647Z,79.80
2022-12-27T19:07:57.089Z,79.43
2022-12-27T19:10:27.078Z,80.57
2022-12-27T19:12:54.264Z,79.92
2022-12-27T19:15:24.098Z,79.90
2022-12-27T19:17:55.037Z,79.04
2022-12-27T19:20:23.391Z,81.40
2022-12-27T19:22:51.764Z,79.13
2022-12-27T19:25:22.885Z,78.98
2022-12-27T19:28:03.287Z,78.58
2022-12-27T19:30:39.897Z,79.41
2022-12-27T19:33:13.115Z,78.67
2022-12-27T19:35:40.410Z,79.32
2022-12-27T19:38:06.897Z,80.19
2022-12-27T19:40:33.552Z,78.77
2022-12-27T19:43:01.344Z,78.29
2022-12-27T19:45:27.717Z,79.13
2022-12-27T19:47:54.500Z,77.19
2022-12-27T19:50:20.919Z,77.33
2022-12-27T19:52:47.283Z,76.45
2022-12-27T19:55:21.010Z,78.68
2022-12-27T19:57:47.377Z,77.96
2022-12-27T20:00:17.298Z,78.68
2022-12-27T20:02:43.835Z,76.74
2022-12-27T20:05:10.827Z,76.83
2022-12-27T20:07:38.118Z,77.36
2022-12-27T20:10:05.757Z,79.08
2022-12-27T20:12:32.205Z,77.52
2022-12-27T20:14:58.653Z,76.56
2022-12-27T20:17:26.343Z,78.40
2022-12-27T20:19:52.901Z,77.69
2022-12-27T20:22:19.333Z,77.67
2022-12-27T20:24:45.968Z,79.53
2022-12-27T20:27:12.376Z,78.03
2022-12-27T20:29:38.827Z,78.03
2022-12-27T20:32:05.453Z,77.15
2022-12-27T20:34:33.192Z,77.99
2022-12-27T20:36:59.542Z,79.86
2022-12-27T20:39:25.930Z,77.64
2022-12-27T20:41:52.358Z,78.42
2022-12-27T20:44:19.353Z,77.43
2022-12-27T20:46:45.843Z,76.46
2022-12-27T20:49:12.244Z,77.36
2022-12-27T20:51:39.930Z,75.63
2022-12-27T20:54:06.874Z,77.67
2022-12-27T20:56:33.217Z,77.82
2022-12-27T20:58:59.576Z,79.09
2022-12-27T21:01:26.487Z,76.97
2022-12-27T21:03:53.881Z,77.21
2022-12-27T21:06:22.025Z,76.30
2022-12-27T21:08:56.375Z,76.44
2022-12-27T21:11:25.794Z,77.05
2022-12-27T21:13:52.228Z,76.08
2022-12-27T21:16:21.674Z,77.00
2022-12-27T21:18:48.865Z,77.65
2022-12-27T21:21:19.565Z,74.89
2022-12-27T21:23:46.740Z,76.58
2022-12-27T21:26:16.336Z,75.57
2022-12-27T21:28:43.565Z,74.74
2022-12-27T21:31:11.965Z,76.24
2022-12-27T21:33:38.406Z,76.37
2022-12-27T21:36:07.117Z,74.52
2022-12-27T21:38:34.721Z,75.98
2022-12-27T21:41:02.797Z,76.04
2022-12-27T21:43:31.502Z,75.57
2022-12-27T21:45:58.653Z,75.85
2022-12-27T21:48:25.259Z,76.57
2022-12-27T21:50:51.996Z,74.33
2022-12-27T21:53:19.503Z,75.96
2022-12-27T21:55:46.714Z,77.05
2022-12-27T21:58:13.087Z,75.47
2022-12-27T22:00:40.784Z,75.95
2022-12-27T22:03:07.442Z,75.23
2022-12-27T22:05:33.947Z,75.24
2022-12-27T22:08:00.302Z,75.27
2022-12-27T22:10:26.696Z,76.63
2022-12-27T22:12:53.110Z,76.28
2022-12-27T22:15:20.528Z,76.24
2022-12-27T22:17:48.280Z,75.80
2022-12-27T22:20:14.788Z,76.36
2022-12-27T22:22:41.141Z,75.69
2022-12-27T22:25:08.671Z,77.50
2022-12-27T22:27:35.584Z,76.46
2022-12-27T22:30:02.121Z,76.01
2022-12-27T22:32:28.720Z,74.26
2022-12-27T22:34:56.447Z,76.23
2022-12-27T22:37:22.790Z,76.95
2022-12-27T22:39:49.182Z,76.13
2022-12-27T22:42:15.581Z,75.14
2022-12-27T22:44:44.525Z,76.37
2022-12-27T22:47:28.013Z,74.07
2022-12-27T22:49:55.999Z,74.92
2022-12-27T22:52:22.423Z,76.61
2022-12-27T22:55:04.691Z,75.82
2022-12-27T22:57:33.295Z,75.88
2022-12-27T22:59:59.667Z,76.39
2022-12-27T23:02:26.082Z,76.00
2022-12-27T23:04:52.623Z,76.81
2022-12-27T23:07:20.355Z,74.52
2022-12-27T23:09:46.747Z,74.13
2022-12-27T23:12:13.597Z,74.20
2022-12-27T23:14:40.287Z,73.96
2022-12-27T23:17:06.677Z,73.84
2022-12-27T23:19:33.051Z,74.92
2022-12-27T23:21:59.441Z,75.24
2022-12-27T23:24:27.184Z,75.73
2022-12-27T23:26:53.572Z,74.40
2022-12-27T23:29:23.174Z,75.82
2022-12-27T23:31:54.508Z,73.96
2022-12-27T23:34:27.313Z,73.89
2022-12-27T23:36:54.884Z,75.73
2022-12-27T23:39:21.261Z,74.89
2022-12-27T23:41:48.989Z,74.01
2022-12-27T23:44:17.578Z,73.85
2022-12-27T23:46:48.897Z,75.46
2022-12-27T23:49:15.285Z,73.96
2022-12-27T23:51:41.626Z,74.65
2022-12-27T23:54:07.982Z,74.75
2022-12-27T23:56:34.416Z,75.41
2022-12-27T23:59:02.861Z,74.13
